createdAt,value
2018-06-05T00:02:38.313Z,18.97
2018-06-05T00:05:43.539Z,20.17
2018-06-05T00:08:48.836Z,22.47
2018-06-05T00:11:54.267Z,25.97
2018-06-05T00:14:58.830Z,19.57
2018-06-05T00:18:03.907Z,20.67
2018-06-05T00:21:08.546Z,15.17
2018-06-05T00:24:14.502Z,14.80
2018-06-05T00:27:19.676Z,16.60
2018-06-05T00:30:24.885Z,20.60
2018-06-05T00:33:31.165Z,21.63
2018-06-05T00:36:35.710Z,22.23
2018-06-05T00:39:40.424Z,17.47
2018-06-05T00:42:45.025Z,10.53
2018-06-05T00:45:51.248Z,14.17
2018-06-05T00:48:57.007Z,10.77
2018-06-05T00:52:07.625Z,11.10
2018-06-05T00:55:12.194Z,10.70
2018-06-05T00:58:19.047Z,10.77
2018-06-05T01:01:23.642Z,11.67
2018-06-05T01:04:28.235Z,10.97
2018-06-05T01:07:32.693Z,9.97
2018-06-05T01:10:38.194Z,11.63
2018-06-05T01:13:43.071Z,12.83
2018-06-05T01:16:47.659Z,12.90
2018-06-05T01:19:52.827Z,13.63
2018-06-05T01:22:58.396Z,13.07
2018-06-05T01:26:04.247Z,11.50
2018-06-05T01:29:08.921Z,11.47
2018-06-05T01:32:14.452Z,12.33
2018-06-05T01:35:18.956Z,15.37
2018-06-05T01:38:23.604Z,14.60
2018-06-05T01:41:29.595Z,12.60
2018-06-05T01:44:34.179Z,15.57
2018-06-05T01:47:41.124Z,21.60
2018-06-05T01:50:46.855Z,19.17
2018-06-05T01:53:53.568Z,13.00
2018-06-05T01:56:59.002Z,15.80
2018-06-05T02:00:03.659Z,14.60
2018-06-05T02:03:08.387Z,13.37
2018-06-05T02:06:13.841Z,17.40
2018-06-05T02:09:18.354Z,15.83
2018-06-05T02:12:22.967Z,15.20
2018-06-05T02:15:28.396Z,11.40
2018-06-05T02:18:33.929Z,11.37
2018-06-05T02:21:38.557Z,11.73
2018-06-05T02:24:43.131Z,12.97
2018-06-05T02:27:47.806Z,11.77
2018-06-05T02:30:52.454Z,14.23
2018-06-05T02:33:58.036Z,12.53
2018-06-05T02:37:02.621Z,13.50
2018-06-05T02:40:06.958Z,15.07
2018-06-05T02:43:12.247Z,11.50
2018-06-05T02:46:17.059Z,15.53
2018-06-05T02:49:23.832Z,15.20
2018-06-05T02:52:29.536Z,14.23
2018-06-05T02:55:35.020Z,16.93
2018-06-05T02:58:46.096Z,18.53
2018-06-05T03:01:51.148Z,16.77
2018-06-05T03:04:55.731Z,12.27
2018-06-05T03:08:01.413Z,14.00
2018-06-05T03:11:06.046Z,13.87
2018-06-05T03:14:12.128Z,14.87
2018-06-05T03:17:29.012Z,16.87
2018-06-05T03:20:34.147Z,14.07
2018-06-05T03:23:39.890Z,17.50
2018-06-05T03:30:15.039Z,23.13
2018-06-05T03:33:27.986Z,18.37
2018-06-05T03:36:38.325Z,33.33
2018-06-05T03:39:43.966Z,41.73
2018-06-05T03:42:50.719Z,31.00
2018-06-05T03:46:03.569Z,34.70
2018-06-05T03:49:08.307Z,36.57
2018-06-05T03:52:15.756Z,40.73
2018-06-05T03:55:27.192Z,42.80
2018-06-05T03:58:36.568Z,42.10
2018-06-05T04:01:42.666Z,44.00
2018-06-05T04:04:47.931Z,41.67
2018-06-05T04:07:57.460Z,42.40
2018-06-05T04:11:06.895Z,41.20
2018-06-05T04:14:12.714Z,34.80
2018-06-05T04:17:20.049Z,40.37
2018-06-05T04:20:24.680Z,41.67
2018-06-05T04:23:30.501Z,41.47
2018-06-05T04:26:36.748Z,43.30
2018-06-05T04:29:41.266Z,44.87
2018-06-05T04:32:50.432Z,40.93
2018-06-05T04:35:54.785Z,43.83
2018-06-05T04:38:59.363Z,48.23
2018-06-05T04:42:03.928Z,46.77
2018-06-05T04:45:15.357Z,43.93
2018-06-05T04:48:20.821Z,44.27
2018-06-05T04:51:28.829Z,48.60
2018-06-05T04:54:40.649Z,46.30
2018-06-05T04:57:45.201Z,45.03
2018-06-05T05:00:50.498Z,40.13
2018-06-05T05:03:57.951Z,41.97
2018-06-05T05:07:13.848Z,44.97
2018-06-05T05:10:30.895Z,48.23
2018-06-05T05:13:40.876Z,45.83
2018-06-05T05:20:45.712Z,36.57
2018-06-05T05:23:50.957Z,46.93
2018-06-05T05:27:02.574Z,43.57
2018-06-05T05:30:09.090Z,40.87
2018-06-05T05:33:25.163Z,40.23
2018-06-05T05:36:34.093Z,40.90
2018-06-05T05:39:41.269Z,44.13
2018-06-05T05:42:51.272Z,37.67
2018-06-05T05:45:56.495Z,41.90
2018-06-05T05:55:28.454Z,45.37
2018-06-05T05:58:37.142Z,43.53
2018-06-05T06:01:42.493Z,40.70
2018-06-05T06:04:47.488Z,41.27
2018-06-05T06:07:55.968Z,42.00
2018-06-05T06:11:05.588Z,38.70
2018-06-05T06:14:17.472Z,39.73
2018-06-05T06:17:23.276Z,37.90
2018-06-05T06:20:32.624Z,39.67
2018-06-05T06:23:39.985Z,38.73
2018-06-05T06:26:46.657Z,43.57
2018-06-05T06:29:51.959Z,41.77
2018-06-05T06:36:16.526Z,37.87
2018-06-05T06:39:27.190Z,42.70
2018-06-05T06:42:33.074Z,39.90
2018-06-05T06:45:40.458Z,46.57
2018-06-05T06:48:51.580Z,40.83
2018-06-05T06:51:59.466Z,41.57
2018-06-05T06:55:11.435Z,42.43
2018-06-05T06:58:17.689Z,46.63
2018-06-05T07:01:22.355Z,41.57
2018-06-05T07:04:30.605Z,44.73
2018-06-05T07:08:07.957Z,35.93
2018-06-05T07:11:12.497Z,45.20
2018-06-05T07:14:20.394Z,43.77
2018-06-05T07:17:33.636Z,42.13
2018-06-05T07:20:38.158Z,38.03
2018-06-05T07:23:43.407Z,39.67
2018-06-05T07:26:50.370Z,36.77
2018-06-05T07:29:54.998Z,40.17
2018-06-05T07:33:21.343Z,38.93
2018-06-05T07:36:33.874Z,40.30
2018-06-05T07:39:39.589Z,36.10
2018-06-05T07:42:44.312Z,43.27
2018-06-05T07:45:51.809Z,38.93
2018-06-05T07:48:57.076Z,37.37
2018-06-05T07:52:01.984Z,36.53
2018-06-05T07:55:06.997Z,38.70
2018-06-05T07:58:11.773Z,36.83
2018-06-05T08:01:31.100Z,35.90
2018-06-05T08:04:56.362Z,36.10
2018-06-05T08:08:08.138Z,39.23
2018-06-05T08:11:12.564Z,35.80
2018-06-05T08:14:20.550Z,40.77
2018-06-05T08:17:28.768Z,39.17
2018-06-05T08:20:33.271Z,37.60
2018-06-05T08:23:47.719Z,37.73
2018-06-05T08:26:58.943Z,40.33
2018-06-05T08:30:07.018Z,42.63
2018-06-05T08:33:12.444Z,39.97
2018-06-05T08:36:22.892Z,37.40
2018-06-05T08:39:27.483Z,34.70
2018-06-05T08:42:35.971Z,47.47
2018-06-05T08:45:41.225Z,37.40
2018-06-05T08:48:45.795Z,40.23
2018-06-05T08:51:51.142Z,38.43
2018-06-05T08:54:56.313Z,37.97
2018-06-05T08:58:01.145Z,37.73
2018-06-05T09:01:06.028Z,36.17
2018-06-05T09:04:12.069Z,35.07
2018-06-05T09:07:17.407Z,38.47
2018-06-05T09:10:24.430Z,41.93
2018-06-05T09:13:31.158Z,34.67
2018-06-05T09:16:40.803Z,33.70
2018-06-05T09:19:54.184Z,38.37
2018-06-05T09:22:58.720Z,36.77
2018-06-05T09:26:04.052Z,33.03
2018-06-05T09:29:11.978Z,34.63
2018-06-05T09:32:33.646Z,38.60
2018-06-05T09:35:48.957Z,29.20
2018-06-05T09:38:56.097Z,31.17
2018-06-05T09:42:02.231Z,33.77
2018-06-05T09:45:18.852Z,30.60
2018-06-05T09:48:25.764Z,28.73
2018-06-05T09:51:37.919Z,29.00
2018-06-05T09:54:45.634Z,23.23
2018-06-05T09:57:52.086Z,27.30
2018-06-05T10:00:58.536Z,26.33
2018-06-05T10:04:06.140Z,27.17
2018-06-05T10:07:16.557Z,24.27
2018-06-05T10:10:25.111Z,22.73
2018-06-05T10:13:31.840Z,27.13
2018-06-05T10:16:37.235Z,24.30
2018-06-05T10:19:42.894Z,24.60
2018-06-05T10:22:49.280Z,24.33
2018-06-05T10:25:56.104Z,21.67
2018-06-05T10:29:01.504Z,22.73
2018-06-05T10:32:06.377Z,22.07
2018-06-05T10:35:11.663Z,20.00
2018-06-05T10:38:16.291Z,20.23
2018-06-05T10:41:24.589Z,17.87
2018-06-05T10:44:32.172Z,20.60
2018-06-05T10:47:37.709Z,21.73
2018-06-05T10:50:45.012Z,20.43
2018-06-05T10:53:50.318Z,21.87
2018-06-05T10:57:01.704Z,21.13
2018-06-05T11:00:13.256Z,22.60
2018-06-05T11:03:20.752Z,21.63
2018-06-05T11:06:30.058Z,18.67
2018-06-05T11:09:35.887Z,20.43
2018-06-05T11:12:40.483Z,16.73
2018-06-05T11:15:44.905Z,17.33
2018-06-05T11:19:17.267Z,20.10
2018-06-05T11:22:24.772Z,19.03
2018-06-05T11:25:33.806Z,17.00
2018-06-05T11:28:45.638Z,16.40
2018-06-05T11:32:02.792Z,16.27
2018-06-05T11:35:13.352Z,18.33
2018-06-05T11:38:24.450Z,14.03
2018-06-05T11:41:30.430Z,17.30
2018-06-05T11:44:42.320Z,18.70
2018-06-05T11:47:50.952Z,18.33
2018-06-05T11:50:57.246Z,18.60
2018-06-05T11:54:05.911Z,15.40
2018-06-05T11:57:11.722Z,17.03
2018-06-05T12:00:23.406Z,19.40
2018-06-05T12:03:32.749Z,18.73
2018-06-05T12:06:38.569Z,18.27
2018-06-05T12:09:49.632Z,19.53
2018-06-05T12:12:55.585Z,19.10
2018-06-05T12:16:00.477Z,16.07
2018-06-05T12:19:10.539Z,17.73
2018-06-05T12:22:18.763Z,19.27
2018-06-05T12:25:28.498Z,18.43
2018-06-05T12:28:33.142Z,17.17
2018-06-05T12:31:38.974Z,15.77
2018-06-05T12:34:44.748Z,20.37
2018-06-05T12:37:56.964Z,16.50
2018-06-05T12:41:03.676Z,20.53
2018-06-05T12:44:08.648Z,13.97
2018-06-05T12:47:13.355Z,15.67
2018-06-05T12:50:20.913Z,15.20
2018-06-05T12:53:27.852Z,15.50
2018-06-05T12:56:32.450Z,18.43
2018-06-05T12:59:42.903Z,17.53
2018-06-05T13:02:47.462Z,13.23
2018-06-05T13:05:57.714Z,14.03
2018-06-05T13:09:05.819Z,18.20
2018-06-05T13:12:10.574Z,13.13
2018-06-05T13:15:15.938Z,13.30
2018-06-05T13:24:48.628Z,16.97
2018-06-05T13:27:54.791Z,17.20
2018-06-05T13:31:07.350Z,11.20
2018-06-05T13:34:18.301Z,13.10
2018-06-05T13:37:30.381Z,14.93
2018-06-05T13:40:42.788Z,14.17
2018-06-05T13:43:49.575Z,10.77
2018-06-05T13:47:06.277Z,13.60
2018-06-05T13:50:14.749Z,13.37
2018-06-05T13:53:27.645Z,13.53
2018-06-05T13:56:34.561Z,13.73
2018-06-05T13:59:41.964Z,12.73
2018-06-05T14:02:48.615Z,12.00
2018-06-05T14:05:59.650Z,11.27
2018-06-05T14:09:07.888Z,12.23
2018-06-05T14:12:30.065Z,15.53
2018-06-05T14:15:44.038Z,12.17
2018-06-05T14:18:58.820Z,16.80
2018-06-05T14:22:15.827Z,11.17
2018-06-05T14:25:20.517Z,11.10
2018-06-05T14:28:35.761Z,13.17
2018-06-05T14:31:41.337Z,11.37
2018-06-05T14:34:47.402Z,11.23
2018-06-05T14:37:53.324Z,10.93
2018-06-05T14:41:03.486Z,13.27
2018-06-05T14:44:11.990Z,10.93
2018-06-05T14:47:19.463Z,12.63
2018-06-05T14:50:30.648Z,11.40
2018-06-05T14:53:35.372Z,10.33
2018-06-05T14:56:42.353Z,11.90
2018-06-05T14:59:49.456Z,13.23
2018-06-05T15:02:54.452Z,12.20
2018-06-05T15:06:07.704Z,10.73
2018-06-05T15:09:13.673Z,12.33
2018-06-05T15:12:19.868Z,11.53
2018-06-05T15:15:28.868Z,11.87
2018-06-05T15:18:45.991Z,11.97
2018-06-05T15:22:11.527Z,10.20
2018-06-05T15:25:16.088Z,12.47
2018-06-05T15:28:22.292Z,11.57
2018-06-05T15:31:27.736Z,11.67
2018-06-05T15:34:36.054Z,15.93
2018-06-05T15:37:43.822Z,15.17
2018-06-05T15:40:57.171Z,11.50
2018-06-05T15:44:02.597Z,10.07
2018-06-05T15:47:09.541Z,11.23
2018-06-05T15:50:20.341Z,14.23
2018-06-05T15:53:35.902Z,15.23
2018-06-05T15:56:45.119Z,15.27
2018-06-05T16:00:04.231Z,14.73
2018-06-05T16:03:14.010Z,14.57
2018-06-05T16:06:21.738Z,13.90
2018-06-05T16:09:29.201Z,11.57
2018-06-05T16:12:35.514Z,12.90
2018-06-05T16:15:41.707Z,15.37
2018-06-05T16:18:48.523Z,12.87
2018-06-05T16:22:02.171Z,12.73
2018-06-05T16:25:09.183Z,13.50
2018-06-05T16:28:35.637Z,15.37
2018-06-05T16:31:57.187Z,11.30
2018-06-05T16:35:05.300Z,11.47
2018-06-05T16:38:10.571Z,13.80
2018-06-05T16:41:15.205Z,13.00
2018-06-05T16:44:22.817Z,9.10
2018-06-05T16:47:28.779Z,13.30
2018-06-05T16:50:34.953Z,12.30
2018-06-05T16:53:40.634Z,13.03
2018-06-05T16:56:49.170Z,15.33
2018-06-05T16:59:56.888Z,12.30
2018-06-05T17:03:02.959Z,13.13
2018-06-05T17:06:08.861Z,12.10
2018-06-05T17:09:19.792Z,12.17
2018-06-05T17:12:38.097Z,14.50
2018-06-05T17:19:15.014Z,12.80
2018-06-05T17:22:30.282Z,11.93
2018-06-05T17:25:34.906Z,11.57
2018-06-05T17:28:41.555Z,10.10
2018-06-05T17:31:47.342Z,13.70
2018-06-05T17:34:55.418Z,13.23
2018-06-05T17:38:00.346Z,17.00
2018-06-05T17:41:05.097Z,14.37
2018-06-05T17:44:15.441Z,12.40
2018-06-05T17:47:23.932Z,13.60
2018-06-05T17:50:32.546Z,12.83
2018-06-05T17:54:06.188Z,13.17
2018-06-05T17:57:12.043Z,12.47
2018-06-05T18:00:22.439Z,19.23
2018-06-05T18:03:29.933Z,13.13
2018-06-05T18:06:34.410Z,14.27
2018-06-05T18:09:38.889Z,12.07
2018-06-05T18:12:43.173Z,12.87
2018-06-05T18:15:47.719Z,13.83
2018-06-05T18:19:02.943Z,13.83
2018-06-05T18:22:07.947Z,14.93
2018-06-05T18:25:12.306Z,14.57
2018-06-05T18:28:17.104Z,13.80
2018-06-05T18:31:25.053Z,14.40
2018-06-05T18:34:40.831Z,13.97
2018-06-05T18:37:45.230Z,12.87
2018-06-05T18:40:49.739Z,13.73
2018-06-05T18:44:06.739Z,13.60
2018-06-05T18:47:11.208Z,12.43
2018-06-05T18:50:15.539Z,15.17
2018-06-05T18:53:21.700Z,13.33
2018-06-05T18:56:34.320Z,16.87
2018-06-05T18:59:38.736Z,13.70
2018-06-05T19:02:43.911Z,13.67
2018-06-05T19:05:48.406Z,14.43
2018-06-05T19:08:57.136Z,14.30
2018-06-05T19:12:01.648Z,14.93
2018-06-05T19:15:18.264Z,18.93
2018-06-05T19:18:37.470Z,15.73
2018-06-05T19:21:42.021Z,16.30
2018-06-05T19:24:46.398Z,18.43
2018-06-05T19:27:57.045Z,14.90
2018-06-05T19:31:02.117Z,16.13
2018-06-05T19:34:06.866Z,15.60
2018-06-05T19:37:11.231Z,19.07
2018-06-05T19:40:15.606Z,16.40
2018-06-05T19:43:30.142Z,13.00
2018-06-05T19:46:37.178Z,14.70
2018-06-05T19:53:05.927Z,15.43
2018-06-05T19:56:14.204Z,18.27
2018-06-05T19:59:18.648Z,17.23
2018-06-05T20:02:27.523Z,13.83
2018-06-05T20:05:31.977Z,15.13
2018-06-05T20:08:36.460Z,15.93
2018-06-05T20:11:41.006Z,15.67
2018-06-05T20:14:45.517Z,16.63
2018-06-05T20:17:51.130Z,14.40
2018-06-05T20:20:58.623Z,19.53
2018-06-05T20:24:03.075Z,19.53
2018-06-05T20:27:09.929Z,16.60
2018-06-05T20:30:16.258Z,16.83
2018-06-05T20:33:23.931Z,13.93
2018-06-05T20:36:31.701Z,16.47
2018-06-05T20:39:36.148Z,16.57
2018-06-05T20:42:40.963Z,13.33
2018-06-05T20:45:45.580Z,17.50
2018-06-05T20:48:50.584Z,19.87
2018-06-05T20:52:01.868Z,19.23
2018-06-05T20:55:07.198Z,15.47
2018-06-05T20:58:11.698Z,19.37
2018-06-05T21:01:16.300Z,17.03
2018-06-05T21:04:21.457Z,17.30
2018-06-05T21:07:26.982Z,18.33
2018-06-05T21:10:31.595Z,16.30
2018-06-05T21:13:36.027Z,17.23
2018-06-05T21:16:40.535Z,16.13
2018-06-05T21:19:45.069Z,15.60
2018-06-05T21:22:50.376Z,13.37
2018-06-05T21:26:02.264Z,20.37
2018-06-05T21:29:07.278Z,16.27
2018-06-05T21:32:11.881Z,15.03
2018-06-05T21:35:16.397Z,11.93
2018-06-05T21:38:22.291Z,19.37
2018-06-05T21:41:29.274Z,17.40
2018-06-05T21:44:33.728Z,20.20
2018-06-05T21:47:38.224Z,17.57
2018-06-05T21:50:42.872Z,13.80
2018-06-05T21:53:47.519Z,16.30
2018-06-05T21:56:56.832Z,14.63
2018-06-05T22:00:04.910Z,14.60
2018-06-05T22:03:09.533Z,17.23
2018-06-05T22:06:14.051Z,15.30
2018-06-05T22:09:18.596Z,14.70
2018-06-05T22:12:29.678Z,18.20
2018-06-05T22:15:34.453Z,20.20
2018-06-05T22:18:39.065Z,20.10
2018-06-05T22:21:43.589Z,18.43
2018-06-05T22:24:48.215Z,17.20
2018-06-05T22:27:54.249Z,17.27
2018-06-05T22:30:58.760Z,17.57
2018-06-05T22:34:03.370Z,17.27
2018-06-05T22:37:09.317Z,18.77
2018-06-05T22:40:13.980Z,20.07
2018-06-05T22:43:18.425Z,17.73
2018-06-05T22:46:38.491Z,19.60
2018-06-05T22:49:42.906Z,21.43
2018-06-05T22:52:47.380Z,18.37
2018-06-05T22:55:52.674Z,20.23
2018-06-05T22:59:02.243Z,17.30
2018-06-05T23:02:08.509Z,20.53
2018-06-05T23:05:13.952Z,20.20
2018-06-05T23:08:19.292Z,21.67
2018-06-05T23:11:36.211Z,17.37
2018-06-05T23:14:51.044Z,18.33
2018-06-05T23:17:56.922Z,25.03
2018-06-05T23:21:01.447Z,21.80
2018-06-05T23:24:08.590Z,23.60
2018-06-05T23:27:15.637Z,18.77
2018-06-05T23:33:30.716Z,18.93
2018-06-05T23:36:35.263Z,21.00
2018-06-05T23:39:39.593Z,25.07
2018-06-05T23:42:47.703Z,20.03
2018-06-05T23:45:55.853Z,21.93
2018-06-05T23:49:01.198Z,20.90
2018-06-05T23:52:05.987Z,21.40
2018-06-05T23:55:10.477Z,21.53
2018-06-05T23:58:14.842Z,27.60
